sensor_id;sensor_type;location;lat;lon;timestamp;pressure;altitude;pressure_sealevel;temperature
34901;BMP280;21112;51.976;5.660;2023-08-12T00:00:16;100825.34;;;19.58
34901;BMP280;21112;51.976;5.660;2023-08-12T00:02:43;100818.50;;;19.58
34901;BMP280;21112;51.976;5.660;2023-08-12T00:05:11;100810.06;;;19.58
34901;BMP280;21112;51.976;5.660;2023-08-12T00:07:41;100809.31;;;19.56
34901;BMP280;21112;51.976;5.660;2023-08-12T00:10:11;100817.06;;;19.54
34901;BMP280;21112;51.976;5.660;2023-08-12T00:12:39;100813.78;;;19.52
34901;BMP280;21112;51.976;5.660;2023-08-12T00:15:07;100814.78;;;19.50
34901;BMP280;21112;51.976;5.660;2023-08-12T00:17:35;100799.47;;;19.50
34901;BMP280;21112;51.976;5.660;2023-08-12T00:20:07;100797.75;;;19.50
34901;BMP280;21112;51.976;5.660;2023-08-12T00:22:36;100806.22;;;19.51
34901;BMP280;21112;51.976;5.660;2023-08-12T00:25:05;100813.94;;;19.49
34901;BMP280;21112;51.976;5.660;2023-08-12T00:27:32;100813.13;;;19.49
34901;BMP280;21112;51.976;5.660;2023-08-12T00:29:59;100807.22;;;19.48
34901;BMP280;21112;51.976;5.660;2023-08-12T00:32:26;100812.22;;;19.50
34901;BMP280;21112;51.976;5.660;2023-08-12T00:34:53;100807.00;;;19.51
34901;BMP280;21112;51.976;5.660;2023-08-12T00:37:19;100797.66;;;19.52
34901;BMP280;21112;51.976;5.660;2023-08-12T00:39:46;100798.38;;;19.54
34901;BMP280;21112;51.976;5.660;2023-08-12T00:42:16;100798.03;;;19.60
34901;BMP280;21112;51.976;5.660;2023-08-12T00:44:43;100781.31;;;19.56
34901;BMP280;21112;51.976;5.660;2023-08-12T00:47:12;100777.09;;;19.55
34901;BMP280;21112;51.976;5.660;2023-08-12T00:49:42;100783.94;;;19.54
34901;BMP280;21112;51.976;5.660;2023-08-12T00:52:11;100775.44;;;19.54
34901;BMP280;21112;51.976;5.660;2023-08-12T00:54:40;100788.19;;;19.54
34901;BMP280;21112;51.976;5.660;2023-08-12T00:57:09;100784.84;;;19.53
34901;BMP280;21112;51.976;5.660;2023-08-12T00:59:37;100767.09;;;19.52
34901;BMP280;21112;51.976;5.660;2023-08-12T01:02:07;100767.09;;;19.52
34901;BMP280;21112;51.976;5.660;2023-08-12T01:04:37;100758.53;;;19.53
34901;BMP280;21112;51.976;5.660;2023-08-12T01:07:08;100760.28;;;19.52
34901;BMP280;21112;51.976;5.660;2023-08-12T01:09:35;100752.63;;;19.52
34901;BMP280;21112;51.976;5.660;2023-08-12T01:12:06;100753.63;;;19.50
34901;BMP280;21112;51.976;5.660;2023-08-12T01:14:45;100749.53;;;19.47
34901;BMP280;21112;51.976;5.660;2023-08-12T01:17:14;100746.97;;;19.47
34901;BMP280;21112;51.976;5.660;2023-08-12T01:19:42;100737.69;;;19.46
34901;BMP280;21112;51.976;5.660;2023-08-12T01:22:11;100736.06;;;19.45
34901;BMP280;21112;51.976;5.660;2023-08-12T01:24:41;100741.41;;;19.41
34901;BMP280;21112;51.976;5.660;2023-08-12T01:27:09;100742.41;;;19.38
34901;BMP280;21112;51.976;5.660;2023-08-12T01:29:40;100744.28;;;19.35
34901;BMP280;21112;51.976;5.660;2023-08-12T01:32:11;100740.13;;;19.34
34901;BMP280;21112;51.976;5.660;2023-08-12T01:34:44;100739.19;;;19.35
34901;BMP280;21112;51.976;5.660;2023-08-12T01:37:24;100732.41;;;19.35
34901;BMP280;21112;51.976;5.660;2023-08-12T01:39:54;100733.94;;;19.38
34901;BMP280;21112;51.976;5.660;2023-08-12T01:42:22;100734.88;;;19.37
34901;BMP280;21112;51.976;5.660;2023-08-12T01:44:49;100725.31;;;19.40
34901;BMP280;21112;51.976;5.660;2023-08-12T01:47:16;100720.94;;;19.42
34901;BMP280;21112;51.976;5.660;2023-08-12T01:49:44;100711.75;;;19.40
34901;BMP280;21112;51.976;5.660;2023-08-12T01:52:11;100707.47;;;19.40
34901;BMP280;21112;51.976;5.660;2023-08-12T01:54:37;100698.09;;;19.41
34901;BMP280;21112;51.976;5.660;2023-08-12T01:57:06;100701.56;;;19.40
34901;BMP280;21112;51.976;5.660;2023-08-12T01:59:33;100702.28;;;19.42
34901;BMP280;21112;51.976;5.660;2023-08-12T02:02:00;100695.47;;;19.42
34901;BMP280;21112;51.976;5.660;2023-08-12T02:04:27;100696.09;;;19.46
34901;BMP280;21112;51.976;5.660;2023-08-12T02:06:59;100702.84;;;19.47
34901;BMP280;21112;51.976;5.660;2023-08-12T02:09:25;100702.84;;;19.47
34901;BMP280;21112;51.976;5.660;2023-08-12T02:11:52;100696.94;;;19.46
34901;BMP280;21112;51.976;5.660;2023-08-12T02:14:20;100699.56;;;19.45
34901;BMP280;21112;51.976;5.660;2023-08-12T02:16:49;100700.28;;;19.47
34901;BMP280;21112;51.976;5.660;2023-08-12T02:19:23;100697.75;;;19.47
34901;BMP280;21112;51.976;5.660;2023-08-12T02:21:50;100694.28;;;19.48
34901;BMP280;21112;51.976;5.660;2023-08-12T02:24:17;100688.47;;;19.46
34901;BMP280;21112;51.976;5.660;2023-08-12T02:26:44;100691.72;;;19.48
34901;BMP280;21112;51.976;5.660;2023-08-12T02:29:10;100688.38;;;19.47
34901;BMP280;21112;51.976;5.660;2023-08-12T02:31:39;100693.47;;;19.47
34901;BMP280;21112;51.976;5.660;2023-08-12T02:34:06;100691.00;;;19.46
34901;BMP280;21112;51.976;5.660;2023-08-12T02:36:46;100691.84;;;19.46
34901;BMP280;21112;51.976;5.660;2023-08-12T02:39:13;100692.66;;;19.47
34901;BMP280;21112;51.976;5.660;2023-08-12T02:41:40;100686.75;;;19.46
34901;BMP280;21112;51.976;5.660;2023-08-12T02:44:07;100682.56;;;19.45
34901;BMP280;21112;51.976;5.660;2023-08-12T02:46:42;100679.19;;;19.45
34901;BMP280;21112;51.976;5.660;2023-08-12T02:49:08;100680.03;;;19.45
34901;BMP280;21112;51.976;5.660;2023-08-12T02:51:35;100677.56;;;19.44
34901;BMP280;21112;51.976;5.660;2023-08-12T02:54:05;100666.53;;;19.43
34901;BMP280;21112;51.976;5.660;2023-08-12T02:56:32;100666.53;;;19.43
34901;BMP280;21112;51.976;5.660;2023-08-12T02:59:04;100661.53;;;19.42
34901;BMP280;21112;51.976;5.660;2023-08-12T03:01:31;100655.63;;;19.41
34901;BMP280;21112;51.976;5.660;2023-08-12T03:03:59;100648.06;;;19.40
34901;BMP280;21112;51.976;5.660;2023-08-12T03:06:25;100653.88;;;19.42
34901;BMP280;21112;51.976;5.660;2023-08-12T03:08:52;100646.25;;;19.42
34901;BMP280;21112;51.976;5.660;2023-08-12T03:11:19;100653.88;;;19.42
34901;BMP280;21112;51.976;5.660;2023-08-12T03:13:45;100648.06;;;19.40
34901;BMP280;21112;51.976;5.660;2023-08-12T03:16:13;100649.69;;;19.41
34901;BMP280;21112;51.976;5.660;2023-08-12T03:18:44;100644.59;;;19.41
34901;BMP280;21112;51.976;5.660;2023-08-12T03:21:12;100639.44;;;19.42
34901;BMP280;21112;51.976;5.660;2023-08-12T03:23:41;100639.34;;;19.44
34901;BMP280;21112;51.976;5.660;2023-08-12T03:26:08;100630.94;;;19.42
34901;BMP280;21112;51.976;5.660;2023-08-12T03:28:36;100623.44;;;19.40
34901;BMP280;21112;51.976;5.660;2023-08-12T03:31:03;100620.88;;;19.40
34901;BMP280;21112;51.976;5.660;2023-08-12T03:33:30;100624.34;;;19.39
34901;BMP280;21112;51.976;5.660;2023-08-12T03:35:57;100620.03;;;19.40
34901;BMP280;21112;51.976;5.660;2023-08-12T03:38:25;100618.41;;;19.39
34901;BMP280;21112;51.976;5.660;2023-08-12T03:40:52;100614.16;;;19.39
34901;BMP280;21112;51.976;5.660;2023-08-12T03:43:19;100608.22;;;19.39
34901;BMP280;21112;51.976;5.660;2023-08-12T03:45:46;100605.59;;;19.40
34901;BMP280;21112;51.976;5.660;2023-08-12T03:48:12;100609.84;;;19.40
34901;BMP280;21112;51.976;5.660;2023-08-12T03:50:42;100604.75;;;19.40
34901;BMP280;21112;51.976;5.660;2023-08-12T03:53:14;100606.41;;;19.41
34901;BMP280;21112;51.976;5.660;2023-08-12T03:55:44;100598.66;;;19.42
34901;BMP280;21112;51.976;5.660;2023-08-12T03:58:11;100601.22;;;19.42
34901;BMP280;21112;51.976;5.660;2023-08-12T04:00:40;100603.59;;;19.45
34901;BMP280;21112;51.976;5.660;2023-08-12T04:06:03;100590.88;;;19.45
34901;BMP280;21112;51.976;5.660;2023-08-12T04:08:31;100592.38;;;19.48
34901;BMP280;21112;51.976;5.660;2023-08-12T04:11:00;100594.03;;;19.49
34901;BMP280;21112;51.976;5.660;2023-08-12T04:13:27;100588.03;;;19.50
34901;BMP280;21112;51.976;5.660;2023-08-12T04:15:54;100588.75;;;19.52
34901;BMP280;21112;51.976;5.660;2023-08-12T04:18:21;100587.84;;;19.53
34901;BMP280;21112;51.976;5.660;2023-08-12T04:20:49;100581.94;;;19.52
34901;BMP280;21112;51.976;5.660;2023-08-12T04:23:16;100587.91;;;19.51
34901;BMP280;21112;51.976;5.660;2023-08-12T04:25:44;100591.28;;;19.52
34901;BMP280;21112;51.976;5.660;2023-08-12T04:28:12;100573.66;;;19.49
34901;BMP280;21112;51.976;5.660;2023-08-12T04:30:41;100579.47;;;19.51
34901;BMP280;21112;51.976;5.660;2023-08-12T04:33:07;100573.66;;;19.49
34901;BMP280;21112;51.976;5.660;2023-08-12T04:35:36;100581.19;;;19.50
34901;BMP280;21112;51.976;5.660;2023-08-12T04:38:03;100576.94;;;19.51
34901;BMP280;21112;51.976;5.660;2023-08-12T04:40:30;100579.47;;;19.51
34901;BMP280;21112;51.976;5.660;2023-08-12T04:42:58;100571.75;;;19.52
34901;BMP280;21112;51.976;5.660;2023-08-12T04:45:26;100566.53;;;19.54
34901;BMP280;21112;51.976;5.660;2023-08-12T04:47:53;100547.69;;;19.56
34901;BMP280;21112;51.976;5.660;2023-08-12T04:50:20;100549.88;;;19.62
34901;BMP280;21112;51.976;5.660;2023-08-12T04:52:47;100541.94;;;19.67
34901;BMP280;21112;51.976;5.660;2023-08-12T04:55:13;100540.00;;;19.70
34901;BMP280;21112;51.976;5.660;2023-08-12T04:57:40;100537.09;;;19.76
34901;BMP280;21112;51.976;5.660;2023-08-12T05:00:09;100547.75;;;19.83
34901;BMP280;21112;51.976;5.660;2023-08-12T05:02:37;100548.44;;;19.85
34901;BMP280;21112;51.976;5.660;2023-08-12T05:05:04;100542.63;;;19.83
34901;BMP280;21112;51.976;5.660;2023-08-12T05:07:33;100545.28;;;19.81
34901;BMP280;21112;51.976;5.660;2023-08-12T05:10:00;100548.91;;;19.77
34901;BMP280;21112;51.976;5.660;2023-08-12T05:12:29;100544.19;;;19.71
34901;BMP280;21112;51.976;5.660;2023-08-12T05:14:55;100534.00;;;19.71
34901;BMP280;21112;51.976;5.660;2023-08-12T05:17:22;100521.56;;;19.67
34901;BMP280;21112;51.976;5.660;2023-08-12T05:19:50;100534.38;;;19.65
34901;BMP280;21112;51.976;5.660;2023-08-12T05:22:17;100516.03;;;19.60
34901;BMP280;21112;51.976;5.660;2023-08-12T05:24:44;100516.31;;;19.56
34901;BMP280;21112;51.976;5.660;2023-08-12T05:27:13;100519.88;;;19.53
34901;BMP280;21112;51.976;5.660;2023-08-12T05:29:40;100529.44;;;19.50
34901;BMP280;21112;51.976;5.660;2023-08-12T05:32:06;100536.25;;;19.49
34901;BMP280;21112;51.976;5.660;2023-08-12T05:34:33;100528.06;;;19.44
34901;BMP280;21112;51.976;5.660;2023-08-12T05:37:01;100535.81;;;19.43
34901;BMP280;21112;51.976;5.660;2023-08-12T05:39:28;100534.44;;;19.37
34901;BMP280;21112;51.976;5.660;2023-08-12T05:41:55;100534.56;;;19.36
34901;BMP280;21112;51.976;5.660;2023-08-12T05:44:21;100538.19;;;19.32
34901;BMP280;21112;51.976;5.660;2023-08-12T05:46:48;100526.28;;;19.32
34901;BMP280;21112;51.976;5.660;2023-08-12T05:49:15;100537.34;;;19.31
34901;BMP280;21112;51.976;5.660;2023-08-12T05:51:41;100528.44;;;19.24
34901;BMP280;21112;51.976;5.660;2023-08-12T05:54:10;100519.09;;;19.25
34901;BMP280;21112;51.976;5.660;2023-08-12T05:56:37;100513.38;;;19.21
34901;BMP280;21112;51.976;5.660;2023-08-12T05:59:04;100523.63;;;19.20
34901;BMP280;21112;51.976;5.660;2023-08-12T06:01:31;100515.84;;;19.23
34901;BMP280;21112;51.976;5.660;2023-08-12T06:03:58;100515.25;;;19.18
34901;BMP280;21112;51.976;5.660;2023-08-12T06:06:24;100518.56;;;19.20
34901;BMP280;21112;51.976;5.660;2023-08-12T06:08:51;100528.72;;;19.20
34901;BMP280;21112;51.976;5.660;2023-08-12T06:11:19;100517.81;;;19.18
34901;BMP280;21112;51.976;5.660;2023-08-12T06:13:46;100523.72;;;19.18
34901;BMP280;21112;51.976;5.660;2023-08-12T06:16:12;100513.72;;;19.15
34901;BMP280;21112;51.976;5.660;2023-08-12T06:18:39;100518.72;;;19.17
34901;BMP280;21112;51.976;5.660;2023-08-12T06:21:06;100522.34;;;19.13
34901;BMP280;21112;51.976;5.660;2023-08-12T06:23:33;100517.44;;;19.10
34901;BMP280;21112;51.976;5.660;2023-08-12T06:26:00;100527.81;;;19.07
34901;BMP280;21112;51.976;5.660;2023-08-12T06:28:28;100522.63;;;19.08
34901;BMP280;21112;51.976;5.660;2023-08-12T06:30:55;100521.06;;;19.06
34901;BMP280;21112;51.976;5.660;2023-08-12T06:33:21;100517.53;;;19.08
34901;BMP280;21112;51.976;5.660;2023-08-12T06:35:49;100516.91;;;19.05
34901;BMP280;21112;51.976;5.660;2023-08-12T06:38:18;100515.25;;;19.04
34901;BMP280;21112;51.976;5.660;2023-08-12T06:40:47;100510.25;;;19.02
34901;BMP280;21112;51.976;5.660;2023-08-12T06:43:13;100509.19;;;19.06
34901;BMP280;21112;51.976;5.660;2023-08-12T06:45:41;100507.72;;;19.02
34901;BMP280;21112;51.976;5.660;2023-08-12T06:48:08;100493.69;;;19.09
34901;BMP280;21112;51.976;5.660;2023-08-12T06:50:35;100499.00;;;19.06
34901;BMP280;21112;51.976;5.660;2023-08-12T06:53:01;100496.53;;;19.05
34901;BMP280;21112;51.976;5.660;2023-08-12T06:55:28;100489.19;;;19.00
34901;BMP280;21112;51.976;5.660;2023-08-12T06:57:55;100496.97;;;18.97
34901;BMP280;21112;51.976;5.660;2023-08-12T07:00:22;100489.25;;;18.99
34901;BMP280;21112;51.976;5.660;2023-08-12T07:02:50;100482.97;;;19.04
34901;BMP280;21112;51.976;5.660;2023-08-12T07:05:17;100488.44;;;19.12
34901;BMP280;21112;51.976;5.660;2023-08-12T07:07:43;100492.41;;;19.16
34901;BMP280;21112;51.976;5.660;2023-08-12T07:10:11;100488.44;;;19.12
34901;BMP280;21112;51.976;5.660;2023-08-12T07:12:37;100478.63;;;19.20
34901;BMP280;21112;51.976;5.660;2023-08-12T07:15:05;100482.16;;;19.18
34901;BMP280;21112;51.976;5.660;2023-08-12T07:17:32;100480.19;;;19.23
34901;BMP280;21112;51.976;5.660;2023-08-12T07:20:00;100476.22;;;19.31
34901;BMP280;21112;51.976;5.660;2023-08-12T07:22:27;100467.97;;;19.28
34901;BMP280;21112;51.976;5.660;2023-08-12T07:24:54;100462.88;;;19.28
34901;BMP280;21112;51.976;5.660;2023-08-12T07:27:21;100465.41;;;19.28
34901;BMP280;21112;51.976;5.660;2023-08-12T07:29:49;100472.63;;;19.21
34901;BMP280;21112;51.976;5.660;2023-08-12T07:32:16;100471.97;;;19.18
34901;BMP280;21112;51.976;5.660;2023-08-12T07:34:42;100468.88;;;19.13
34901;BMP280;21112;51.976;5.660;2023-08-12T07:37:11;100463.97;;;19.10
34901;BMP280;21112;51.976;5.660;2023-08-12T07:39:39;100464.06;;;19.08
34901;BMP280;21112;51.976;5.660;2023-08-12T07:42:06;100463.25;;;19.08
34901;BMP280;21112;51.976;5.660;2023-08-12T07:44:35;100468.31;;;19.08
34901;BMP280;21112;51.976;5.660;2023-08-12T07:47:02;100455.81;;;19.05
34901;BMP280;21112;51.976;5.660;2023-08-12T07:49:29;100460.69;;;19.08
34901;BMP280;21112;51.976;5.660;2023-08-12T07:52:00;100458.34;;;19.05
34901;BMP280;21112;51.976;5.660;2023-08-12T07:54:31;100453.97;;;19.07
34901;BMP280;21112;51.976;5.660;2023-08-12T07:56:58;100458.88;;;19.10
34901;BMP280;21112;51.976;5.660;2023-08-12T07:59:29;100455.06;;;19.17
34901;BMP280;21112;51.976;5.660;2023-08-12T08:01:56;100464.63;;;19.13
34901;BMP280;21112;51.976;5.660;2023-08-12T08:04:22;100456.50;;;19.07
34901;BMP280;21112;51.976;5.660;2023-08-12T08:06:49;100446.88;;;19.12
34901;BMP280;21112;51.976;5.660;2023-08-12T08:09:16;100453.22;;;19.19
34901;BMP280;21112;51.976;5.660;2023-08-12T08:11:44;100451.59;;;19.18
34901;BMP280;21112;51.976;5.660;2023-08-12T08:14:11;100447.72;;;19.12
34901;BMP280;21112;51.976;5.660;2023-08-12T08:16:38;100450.13;;;19.14
34901;BMP280;21112;51.976;5.660;2023-08-12T08:19:06;100440.06;;;19.12
34901;BMP280;21112;51.976;5.660;2023-08-12T08:21:35;100442.31;;;19.17
34901;BMP280;21112;51.976;5.660;2023-08-12T08:24:01;100451.97;;;19.26
34901;BMP280;21112;51.976;5.660;2023-08-12T08:26:31;100453.31;;;19.31
34901;BMP280;21112;51.976;5.660;2023-08-12T08:28:59;100446.69;;;19.29
34901;BMP280;21112;51.976;5.660;2023-08-12T08:31:26;100449.13;;;19.30
34901;BMP280;21112;51.976;5.660;2023-08-12T08:33:52;100449.03;;;19.32
34901;BMP280;21112;51.976;5.660;2023-08-12T08:36:19;100445.44;;;19.22
34901;BMP280;21112;51.976;5.660;2023-08-12T08:38:49;100449.25;;;19.29
34901;BMP280;21112;51.976;5.660;2023-08-12T08:41:16;100452.59;;;19.29
34901;BMP280;21112;51.976;5.660;2023-08-12T08:43:44;100455.16;;;19.29
34901;BMP280;21112;51.976;5.660;2023-08-12T08:46:15;100461.06;;;19.30
34901;BMP280;21112;51.976;5.660;2023-08-12T08:48:43;100464.31;;;19.32
34901;BMP280;21112;51.976;5.660;2023-08-12T08:51:10;100475.59;;;19.28
34901;BMP280;21112;51.976;5.660;2023-08-12T08:53:38;100475.34;;;19.32
34901;BMP280;21112;51.976;5.660;2023-08-12T08:56:05;100470.50;;;19.28
34901;BMP280;21112;51.976;5.660;2023-08-12T08:58:32;100477.59;;;19.37
34901;BMP280;21112;51.976;5.660;2023-08-12T09:00:59;100481.19;;;19.47
34901;BMP280;21112;51.976;5.660;2023-08-12T09:03:28;100478.81;;;19.58
34901;BMP280;21112;51.976;5.660;2023-08-12T09:05:56;100487.78;;;19.63
34901;BMP280;21112;51.976;5.660;2023-08-12T09:08:23;100491.41;;;19.73
34901;BMP280;21112;51.976;5.660;2023-08-12T09:10:51;100491.59;;;19.70
34901;BMP280;21112;51.976;5.660;2023-08-12T09:13:18;100485.31;;;19.76
34901;BMP280;21112;51.976;5.660;2023-08-12T09:15:44;100482.16;;;19.72
34901;BMP280;21112;51.976;5.660;2023-08-12T09:18:11;100500.50;;;19.77
34901;BMP280;21112;51.976;5.660;2023-08-12T09:20:40;100501.31;;;19.78
34901;BMP280;21112;51.976;5.660;2023-08-12T09:23:09;100499.09;;;19.86
34901;BMP280;21112;51.976;5.660;2023-08-12T09:25:41;100501.59;;;20.00
34901;BMP280;21112;51.976;5.660;2023-08-12T09:28:09;100493.31;;;19.96
34901;BMP280;21112;51.976;5.660;2023-08-12T09:30:39;100504.31;;;20.36
34901;BMP280;21112;51.976;5.660;2023-08-12T09:33:07;100494.88;;;20.38
34901;BMP280;21112;51.976;5.660;2023-08-12T09:35:36;100496.09;;;20.45
34901;BMP280;21112;51.976;5.660;2023-08-12T09:38:11;100490.06;;;20.58
34901;BMP280;21112;51.976;5.660;2023-08-12T09:40:39;100484.75;;;20.74
34901;BMP280;21112;51.976;5.660;2023-08-12T09:43:06;100481.31;;;20.87
34901;BMP280;21112;51.976;5.660;2023-08-12T09:45:34;100468.66;;;20.73
34901;BMP280;21112;51.976;5.660;2023-08-12T09:48:01;100482.31;;;20.97
34901;BMP280;21112;51.976;5.660;2023-08-12T09:50:31;100496.88;;;20.83
34901;BMP280;21112;51.976;5.660;2023-08-12T09:52:58;100505.88;;;20.76
34901;BMP280;21112;51.976;5.660;2023-08-12T09:55:27;100514.38;;;21.14
34901;BMP280;21112;51.976;5.660;2023-08-12T09:57:55;100510.28;;;21.47
34901;BMP280;21112;51.976;5.660;2023-08-12T10:00:23;100513.31;;;21.29
34901;BMP280;21112;51.976;5.660;2023-08-12T10:02:52;100510.69;;;21.05
34901;BMP280;21112;51.976;5.660;2023-08-12T10:05:22;100519.69;;;20.86
34901;BMP280;21112;51.976;5.660;2023-08-12T10:07:52;100526.72;;;20.45
34901;BMP280;21112;51.976;5.660;2023-08-12T10:10:21;100524.69;;;19.84
34901;BMP280;21112;51.976;5.660;2023-08-12T10:12:50;100536.16;;;19.51
34901;BMP280;21112;51.976;5.660;2023-08-12T10:15:17;100530.53;;;19.04
34901;BMP280;21112;51.976;5.660;2023-08-12T10:17:44;100537.63;;;18.99
34901;BMP280;21112;51.976;5.660;2023-08-12T10:20:13;100538.72;;;18.95
34901;BMP280;21112;51.976;5.660;2023-08-12T10:22:42;100543.91;;;18.93
34901;BMP280;21112;51.976;5.660;2023-08-12T10:25:13;100543.34;;;19.44
34901;BMP280;21112;51.976;5.660;2023-08-12T10:27:40;100533.63;;;20.43
34901;BMP280;21112;51.976;5.660;2023-08-12T10:30:09;100527.09;;;21.39
34901;BMP280;21112;51.976;5.660;2023-08-12T10:32:38;100519.44;;;21.75
34901;BMP280;21112;51.976;5.660;2023-08-12T10:35:06;100523.34;;;21.91
34901;BMP280;21112;51.976;5.660;2023-08-12T10:37:38;100529.59;;;21.03
34901;BMP280;21112;51.976;5.660;2023-08-12T10:40:20;100521.03;;;22.68
34901;BMP280;21112;51.976;5.660;2023-08-12T10:42:48;100517.59;;;23.02
34901;BMP280;21112;51.976;5.660;2023-08-12T10:45:20;100508.81;;;22.71
34901;BMP280;21112;51.976;5.660;2023-08-12T10:47:49;100518.25;;;22.26
34901;BMP280;21112;51.976;5.660;2023-08-12T10:50:19;100519.75;;;23.50
34901;BMP280;21112;51.976;5.660;2023-08-12T10:53:20;100512.09;;;23.39
34901;BMP280;21112;51.976;5.660;2023-08-12T10:55:55;100514.66;;;23.39
34901;BMP280;21112;51.976;5.660;2023-08-12T10:58:33;100507.41;;;23.55
34901;BMP280;21112;51.976;5.660;2023-08-12T11:01:10;100503.13;;;24.60
34901;BMP280;21112;51.976;5.660;2023-08-12T11:03:42;100508.84;;;24.11
34901;BMP280;21112;51.976;5.660;2023-08-12T11:06:17;100500.34;;;22.71
34901;BMP280;21112;51.976;5.660;2023-08-12T11:08:52;100504.38;;;22.63
34901;BMP280;21112;51.976;5.660;2023-08-12T11:11:23;100511.19;;;23.83
34901;BMP280;21112;51.976;5.660;2023-08-12T11:13:56;100503.91;;;24.19
34901;BMP280;21112;51.976;5.660;2023-08-12T11:17:02;100506.03;;;24.35
34901;BMP280;21112;51.976;5.660;2023-08-12T11:19:59;100508.28;;;23.65
34901;BMP280;21112;51.976;5.660;2023-08-12T11:22:26;100505.56;;;23.89
34901;BMP280;21112;51.976;5.660;2023-08-12T11:24:53;100506.38;;;23.47
34901;BMP280;21112;51.976;5.660;2023-08-12T11:27:21;100497.44;;;24.56
34901;BMP280;21112;51.976;5.660;2023-08-12T11:29:49;100507.56;;;23.43
34901;BMP280;21112;51.976;5.660;2023-08-12T11:32:21;100505.28;;;23.60
34901;BMP280;21112;51.976;5.660;2023-08-12T11:34:52;100500.34;;;23.79
34901;BMP280;21112;51.976;5.660;2023-08-12T11:37:21;100511.00;;;23.64
34901;BMP280;21112;51.976;5.660;2023-08-12T11:39:47;100505.13;;;24.86
34901;BMP280;21112;51.976;5.660;2023-08-12T11:42:19;100508.47;;;24.77
34901;BMP280;21112;51.976;5.660;2023-08-12T11:44:46;100500.59;;;24.69
34901;BMP280;21112;51.976;5.660;2023-08-12T11:47:15;100504.31;;;24.35
34901;BMP280;21112;51.976;5.660;2023-08-12T11:49:56;100494.31;;;23.69
34901;BMP280;21112;51.976;5.660;2023-08-12T11:52:23;100502.06;;;24.21
34901;BMP280;21112;51.976;5.660;2023-08-12T11:54:50;100496.13;;;23.89
34901;BMP280;21112;51.976;5.660;2023-08-12T11:57:22;100496.34;;;24.89
34901;BMP280;21112;51.976;5.660;2023-08-12T11:59:49;100494.94;;;25.05
34901;BMP280;21112;51.976;5.660;2023-08-12T12:02:16;100495.13;;;25.62
34901;BMP280;21112;51.976;5.660;2023-08-12T12:04:43;100498.75;;;25.11
34901;BMP280;21112;51.976;5.660;2023-08-12T12:07:22;100505.63;;;24.71
34901;BMP280;21112;51.976;5.660;2023-08-12T12:09:50;100505.06;;;24.97
34901;BMP280;21112;51.976;5.660;2023-08-12T12:12:17;100509.31;;;25.17
34901;BMP280;21112;51.976;5.660;2023-08-12T12:14:46;100497.06;;;24.91
34901;BMP280;21112;51.976;5.660;2023-08-12T12:17:14;100497.22;;;24.69
34901;BMP280;21112;51.976;5.660;2023-08-12T12:19:41;100490.19;;;25.40
34901;BMP280;21112;51.976;5.660;2023-08-12T12:22:08;100491.31;;;26.42
34901;BMP280;21112;51.976;5.660;2023-08-12T12:24:45;100496.38;;;26.15
34901;BMP280;21112;51.976;5.660;2023-08-12T12:27:13;100500.97;;;25.93
34901;BMP280;21112;51.976;5.660;2023-08-12T12:29:40;100500.56;;;25.97
34901;BMP280;21112;51.976;5.660;2023-08-12T12:32:08;100499.94;;;24.67
34901;BMP280;21112;51.976;5.660;2023-08-12T12:34:39;100499.09;;;24.26
34901;BMP280;21112;51.976;5.660;2023-08-12T12:37:06;100504.66;;;23.90
34901;BMP280;21112;51.976;5.660;2023-08-12T12:39:33;100506.47;;;23.99
34901;BMP280;21112;51.976;5.660;2023-08-12T12:42:01;100511.91;;;24.57
34901;BMP280;21112;51.976;5.660;2023-08-12T12:44:30;100503.72;;;23.91
34901;BMP280;21112;51.976;5.660;2023-08-12T12:46:57;100510.69;;;24.20
34901;BMP280;21112;51.976;5.660;2023-08-12T12:49:27;100508.44;;;24.06
34901;BMP280;21112;51.976;5.660;2023-08-12T12:51:55;100515.69;;;24.63
34901;BMP280;21112;51.976;5.660;2023-08-12T12:54:26;100503.41;;;24.66
34901;BMP280;21112;51.976;5.660;2023-08-12T12:56:54;100516.38;;;24.24
34901;BMP280;21112;51.976;5.660;2023-08-12T12:59:23;100509.38;;;24.26
34901;BMP280;21112;51.976;5.660;2023-08-12T13:01:51;100506.63;;;24.59
34901;BMP280;21112;51.976;5.660;2023-08-12T13:04:20;100505.38;;;25.13
34901;BMP280;21112;51.976;5.660;2023-08-12T13:06:49;100502.44;;;25.76
34901;BMP280;21112;51.976;5.660;2023-08-12T13:09:18;100503.13;;;25.88
34901;BMP280;21112;51.976;5.660;2023-08-12T13:11:45;100500.78;;;26.61
34901;BMP280;21112;51.976;5.660;2023-08-12T13:14:13;100505.16;;;25.84
34901;BMP280;21112;51.976;5.660;2023-08-12T13:16:45;100511.00;;;26.05
34901;BMP280;21112;51.976;5.660;2023-08-12T13:19:11;100508.41;;;26.05
34901;BMP280;21112;51.976;5.660;2023-08-12T13:21:38;100506.25;;;26.01
34901;BMP280;21112;51.976;5.660;2023-08-12T13:24:12;100501.22;;;26.28
34901;BMP280;21112;51.976;5.660;2023-08-12T13:26:43;100511.66;;;25.79
34901;BMP280;21112;51.976;5.660;2023-08-12T13:29:11;100513.69;;;25.85
34901;BMP280;21112;51.976;5.660;2023-08-12T13:31:40;100521.94;;;25.69
34901;BMP280;21112;51.976;5.660;2023-08-12T13:34:11;100519.75;;;25.74
34901;BMP280;21112;51.976;5.660;2023-08-12T13:36:40;100517.63;;;26.17
34901;BMP280;21112;51.976;5.660;2023-08-12T13:39:07;100525.69;;;26.70
34901;BMP280;21112;51.976;5.660;2023-08-12T13:41:34;100520.88;;;26.10
34901;BMP280;21112;51.976;5.660;2023-08-12T13:44:08;100523.06;;;25.37
34901;BMP280;21112;51.976;5.660;2023-08-12T13:46:38;100530.09;;;25.35
34901;BMP280;21112;51.976;5.660;2023-08-12T13:49:05;100526.50;;;25.56
34901;BMP280;21112;51.976;5.660;2023-08-12T13:55:07;100517.69;;;25.40
34901;BMP280;21112;51.976;5.660;2023-08-12T13:57:36;100530.41;;;25.51
34901;BMP280;21112;51.976;5.660;2023-08-12T14:00:14;100528.34;;;25.94
34901;BMP280;21112;51.976;5.660;2023-08-12T14:02:41;100523.28;;;26.49
34901;BMP280;21112;51.976;5.660;2023-08-12T14:05:09;100525.19;;;26.57
34901;BMP280;21112;51.976;5.660;2023-08-12T14:07:36;100524.66;;;25.87
34901;BMP280;21112;51.976;5.660;2023-08-12T14:10:16;100530.97;;;25.15